Time;durP1;ratioP1;P1;durP2;ratioP2;P2;SDS_P1;SDS_P2;PMS_P1;PMS_P2;Temp;Humidity;BMP_temperature;BMP_pressure;BME280_temperature;BME280_humidity;BME280_pressure;Samples;Min_cycle;Max_cycle;Signal;HPM_P1;HPM_P2
2023/09/30 00:01:02;;;;;;;4.25;2.10;;;15.40;68.40;;;;;;5009149;28;20404;-52
2023/09/30 00:03:29;;;;;;;4.47;2.05;;;15.30;68.40;;;;;;5014344;28;20050;-51
2023/09/30 00:06:04;;;;;;;4.25;2.10;;;15.30;68.50;;;;;;5012525;28;20069;-51
2023/09/30 00:08:31;;;;;;;5.43;2.55;;;15.40;68.70;;;;;;5008014;28;20049;-53
2023/09/30 00:10:57;;;;;;;2.75;1.88;;;15.40;68.70;;;;;;5009176;28;20038;-49
2023/09/30 00:13:26;;;;;;;3.92;2.17;;;15.30;68.70;;;;;;5010283;28;20038;-49
2023/09/30 00:15:53;;;;;;;2.83;2.10;;;15.40;68.80;;;;;;5011576;28;20088;-53
2023/09/30 00:18:19;;;;;;;4.80;2.58;;;15.40;68.90;;;;;;5011453;28;20091;-49
2023/09/30 00:20:47;;;;;;;3.25;2.05;;;15.40;69.00;;;;;;5012956;28;20042;-52
2023/09/30 00:23:16;;;;;;;4.93;2.13;;;15.40;69.10;;;;;;5010538;28;20065;-49
2023/09/30 00:25:49;;;;;;;3.92;2.38;;;15.40;69.20;;;;;;5010391;28;20673;-53
2023/09/30 00:28:19;;;;;;;2.22;2.03;;;15.50;69.40;;;;;;5010944;28;20056;-49
2023/09/30 00:30:49;;;;;;;3.78;1.73;;;15.40;69.40;;;;;;5014261;28;20049;-53
2023/09/30 00:33:17;;;;;;;3.33;2.30;;;15.50;69.50;;;;;;5011111;28;20104;-51
2023/09/30 00:35:43;;;;;;;3.35;1.80;;;15.50;69.40;;;;;;5016385;28;20038;-51
2023/09/30 00:38:14;;;;;;;6.50;2.70;;;15.50;69.50;;;;;;5010151;28;20074;-50
2023/09/30 00:40:50;;;;;;;4.53;2.05;;;15.50;69.50;;;;;;5011174;28;20053;-51
2023/09/30 00:43:21;;;;;;;4.07;2.40;;;15.50;69.50;;;;;;5019692;28;20056;-49
2023/09/30 00:45:54;;;;;;;4.90;1.98;;;15.60;69.50;;;;;;5010824;28;20038;-50
2023/09/30 00:48:23;;;;;;;;;;;15.60;69.50;;;;;;5011644;28;20056;-49
2023/09/30 00:50:51;;;;;;;2.40;1.70;;;15.70;69.50;;;;;;5014625;28;20008;-50
2023/09/30 00:53:19;;;;;;;3.33;2.28;;;15.60;69.10;;;;;;5012859;28;20455;-51
2023/09/30 00:55:45;;;;;;;2.92;1.90;;;15.60;69.20;;;;;;5010322;28;20125;-53
2023/09/30 00:58:13;;;;;;;3.35;2.03;;;15.60;69.30;;;;;;5011263;28;20042;-52
2023/09/30 01:00:42;;;;;;;5.05;2.35;;;15.60;69.50;;;;;;5017357;28;20067;-48
2023/09/30 01:03:12;;;;;;;6.03;2.10;;;15.60;69.60;;;;;;5020808;28;20049;-50
2023/09/30 01:05:39;;;;;;;4.28;2.22;;;15.60;69.70;;;;;;5013276;28;20045;-50
2023/09/30 01:08:06;;;;;;;4.10;2.35;;;15.60;69.80;;;;;;5011167;28;20045;-51
2023/09/30 01:10:35;;;;;;;5.43;2.92;;;15.60;69.80;;;;;;5010027;28;20056;-49
2023/09/30 01:13:02;;;;;;;3.80;2.78;;;15.60;69.80;;;;;;5013250;28;20049;-49
2023/09/30 01:15:36;;;;;;;5.68;3.50;;;15.60;70.40;;;;;;5010029;28;20054;-51
2023/09/30 01:18:04;;;;;;;4.95;2.78;;;15.60;70.00;;;;;;5010495;28;20069;-50
2023/09/30 01:20:36;;;;;;;5.43;3.17;;;15.60;70.10;;;;;;5010605;28;20045;-47
2023/09/30 01:23:04;;;;;;;4.40;3.00;;;15.60;70.10;;;;;;5013078;28;20034;-52
2023/09/30 01:25:38;;;;;;;4.75;2.78;;;15.60;70.20;;;;;;5010086;28;20112;-49
2023/09/30 01:28:08;;;;;;;4.00;3.60;;;15.60;70.50;;;;;;5010725;28;20045;-49
2023/09/30 01:30:36;;;;;;;5.18;3.30;;;15.70;70.50;;;;;;5009806;28;20092;-48
2023/09/30 01:33:07;;;;;;;4.03;3.17;;;15.70;70.40;;;;;;5014138;28;20072;-52
2023/09/30 01:35:37;;;;;;;4.90;3.58;;;15.70;70.40;;;;;;5022618;28;20054;-51
2023/09/30 01:38:09;;;;;;;5.15;4.13;;;15.70;70.40;;;;;;5010359;28;20022;-53
2023/09/30 01:40:44;;;;;;;5.90;3.80;;;15.70;70.30;;;;;;5011825;28;20042;-48
2023/09/30 01:43:13;;;;;;;6.22;4.32;;;15.70;70.10;;;;;;5021556;28;20474;-53
2023/09/30 01:45:43;;;;;;;4.40;3.25;;;15.70;70.00;;;;;;5008813;28;20679;-50
2023/09/30 01:48:10;;;;;;;8.85;3.78;;;15.70;70.00;;;;;;5017573;28;20100;-49
2023/09/30 01:50:38;;;;;;;6.20;3.60;;;15.60;69.80;;;;;;5014752;28;20051;-48
2023/09/30 01:53:06;;;;;;;7.07;4.25;;;15.60;69.80;;;;;;5014602;28;20117;-50
2023/09/30 01:55:34;;;;;;;4.70;4.30;;;15.60;69.80;;;;;;5008814;28;20065;-47
2023/09/30 01:58:04;;;;;;;5.75;4.47;;;15.60;69.90;;;;;;5010364;28;20065;-52
2023/09/30 02:00:31;;;;;;;8.73;4.72;;;15.50;70.00;;;;;;5013058;28;20046;-49
2023/09/30 02:03:01;;;;;;;7.93;5.28;;;15.50;70.10;;;;;;5008985;28;20045;-50
2023/09/30 02:05:36;;;;;;;6.55;4.47;;;15.50;70.40;;;;;;5009277;28;20044;-50
2023/09/30 02:08:05;;;;;;;9.35;5.13;;;15.50;70.40;;;;;;5008478;28;20046;-53
2023/09/30 02:10:36;;;;;;;7.18;4.85;;;15.50;70.40;;;;;;5010548;28;20508;-48
2023/09/30 02:13:05;;;;;;;7.30;4.85;;;15.50;70.40;;;;;;5012242;28;20053;-52
2023/09/30 02:15:33;;;;;;;6.15;4.97;;;15.40;70.30;;;;;;5009998;28;20530;-48
2023/09/30 02:18:05;;;;;;;6.47;5.28;;;15.40;70.20;;;;;;5008344;28;20696;-50
2023/09/30 02:20:32;;;;;;;9.10;4.55;;;15.40;70.10;;;;;;5009075;28;20066;-52
2023/09/30 02:22:59;;;;;;;7.13;4.55;;;15.40;70.30;;;;;;5011696;28;20117;-53
2023/09/30 02:25:31;;;;;;;6.83;4.23;;;15.50;70.30;;;;;;5009690;28;20145;-48
2023/09/30 02:28:02;;;;;;;6.28;4.65;;;15.50;70.10;;;;;;5009656;28;20042;-53
2023/09/30 02:30:29;;;;;;;6.72;5.05;;;15.40;70.00;;;;;;5009275;28;20057;-48
2023/09/30 02:32:58;;;;;;;5.00;4.45;;;15.40;70.00;;;;;;5015460;28;20084;-49
2023/09/30 02:35:27;;;;;;;6.82;4.32;;;15.40;69.90;;;;;;5015953;28;20168;-49
2023/09/30 02:37:58;;;;;;;6.43;5.05;;;15.40;69.90;;;;;;4991641;28;20045;-51
2023/09/30 02:40:30;;;;;;;5.13;4.28;;;15.30;69.80;;;;;;5010111;28;20411;-51
2023/09/30 02:42:57;;;;;;;6.00;5.20;;;15.30;69.70;;;;;;5021020;28;20042;-51
2023/09/30 02:45:24;;;;;;;5.35;4.72;;;15.30;69.70;;;;;;5009376;28;20065;-53
2023/09/30 02:47:51;;;;;;;5.97;4.95;;;15.30;69.80;;;;;;5021180;28;20638;-51
2023/09/30 02:50:18;;;;;;;5.97;4.63;;;15.30;69.90;;;;;;5017279;28;20129;-53
2023/09/30 02:52:44;;;;;;;5.20;4.28;;;15.30;69.90;;;;;;5007889;28;20049;-49
2023/09/30 02:55:12;;;;;;;6.05;4.70;;;15.20;70.00;;;;;;5008242;28;20046;-48
2023/09/30 02:57:42;;;;;;;7.78;5.50;;;15.20;70.10;;;;;;5008906;28;20124;-50
2023/09/30 03:00:23;;;;;;;9.82;5.25;;;15.20;70.30;;;;;;5008567;28;20060;-52
2023/09/30 03:02:53;;;;;;;7.28;5.10;;;15.30;70.30;;;;;;5014269;28;20207;-51
2023/09/30 03:05:21;;;;;;;6.97;5.15;;;15.30;70.30;;;;;;5009310;28;20120;-52
2023/09/30 03:07:50;;;;;;;5.70;4.70;;;15.20;70.00;;;;;;5007336;28;20137;-49
2023/09/30 03:10:32;;;;;;;6.72;4.95;;;15.20;70.00;;;;;;5008299;28;20065;-49
2023/09/30 03:13:01;;;;;;;6.82;5.05;;;15.20;69.80;;;;;;5008749;28;20476;-53
2023/09/30 03:15:33;;;;;;;7.27;5.00;;;15.20;69.80;;;;;;5009136;28;20100;-50
2023/09/30 03:18:00;;;;;;;7.35;5.53;;;15.10;69.60;;;;;;5008370;28;20289;-49
2023/09/30 03:20:27;;;;;;;7.50;5.72;;;15.10;69.60;;;;;;5009749;28;20044;-50
2023/09/30 03:22:56;;;;;;;8.52;5.85;;;15.10;69.70;;;;;;5008706;28;20046;-47
2023/09/30 03:25:23;;;;;;;9.05;5.72;;;15.10;69.80;;;;;;5008599;28;20131;-48
2023/09/30 03:27:49;;;;;;;7.72;5.55;;;15.00;69.90;;;;;;5009817;28;20543;-50
2023/09/30 03:30:17;;;;;;;9.02;6.55;;;15.00;69.70;;;;;;5015695;28;20046;-51
2023/09/30 03:32:47;;;;;;;9.43;6.40;;;15.00;69.60;;;;;;5017607;28;20052;-47
2023/09/30 03:35:17;;;;;;;8.40;5.22;;;14.90;69.60;;;;;;5018803;28;20124;-52
2023/09/30 03:37:48;;;;;;;7.80;5.82;;;14.90;69.70;;;;;;5022061;28;20500;-48
2023/09/30 03:40:19;;;;;;;7.63;5.43;;;14.90;69.90;;;;;;5020962;28;20042;-52
2023/09/30 03:42:52;;;;;;;6.93;5.55;;;14.90;69.80;;;;;;5016445;28;20042;-52
2023/09/30 03:45:19;;;;;;;6.47;5.00;;;14.90;69.70;;;;;;5014118;28;20053;-49
2023/09/30 03:47:47;;;;;;;7.60;5.07;;;14.80;69.60;;;;;;5008722;28;20138;-51
2023/09/30 03:50:14;;;;;;;6.50;5.13;;;14.80;69.50;;;;;;5017917;28;20088;-51
2023/09/30 03:52:47;;;;;;;5.95;4.22;;;14.80;69.50;;;;;;5014034;28;20508;-51
2023/09/30 03:55:20;;;;;;;5.85;4.90;;;14.80;69.60;;;;;;5019236;28;20041;-48
2023/09/30 03:57:52;;;;;;;5.72;4.20;;;14.70;69.60;;;;;;5012560;28;20096;-49
2023/09/30 04:00:19;;;;;;;5.10;4.00;;;14.70;69.50;;;;;;5019171;28;20045;-51
2023/09/30 04:02:54;;;;;;;6.15;4.57;;;14.70;69.30;;;;;;5014671;28;20069;-49
2023/09/30 04:05:28;;;;;;;4.47;3.95;;;14.70;69.30;;;;;;5015543;28;20049;-49
2023/09/30 04:07:56;;;;;;;4.65;4.05;;;14.60;69.30;;;;;;5019559;28;20133;-50
2023/09/30 04:10:22;;;;;;;6.25;4.43;;;14.60;69.20;;;;;;5019608;28;20056;-49
2023/09/30 04:12:54;;;;;;;5.90;4.07;;;14.60;69.30;;;;;;5013373;28;20145;-49
2023/09/30 04:15:24;;;;;;;4.70;4.15;;;14.50;69.10;;;;;;5012318;28;20642;-52
2023/09/30 04:17:54;;;;;;;6.60;4.93;;;14.50;69.10;;;;;;5011961;28;20046;-51
2023/09/30 04:20:29;;;;;;;6.28;5.03;;;14.50;69.20;;;;;;5012159;28;20069;-51
2023/09/30 04:22:58;;;;;;;5.80;4.95;;;14.40;69.10;;;;;;5014510;28;20528;-51
2023/09/30 04:25:26;;;;;;;7.35;5.22;;;14.40;69.00;;;;;;5020614;28;20038;-52
2023/09/30 04:27:54;;;;;;;6.60;4.90;;;14.40;69.00;;;;;;5017022;28;20395;-48
2023/09/30 04:30:27;;;;;;;5.88;4.50;;;14.30;69.10;;;;;;5015487;28;20474;-49
2023/09/30 04:32:54;;;;;;;7.60;4.72;;;14.50;69.20;;;;;;5015697;28;20045;-49
2023/09/30 04:35:21;;;;;;;7.28;5.38;;;14.30;69.10;;;;;;5018797;28;20049;-50
2023/09/30 04:37:48;;;;;;;6.28;5.35;;;14.30;69.30;;;;;;5018953;28;20550;-47
2023/09/30 04:40:15;;;;;;;6.85;4.85;;;14.30;69.30;;;;;;5012517;28;20543;-48
2023/09/30 04:42:50;;;;;;;7.30;5.00;;;14.20;69.20;;;;;;5012562;28;20093;-49
2023/09/30 04:45:20;;;;;;;7.32;5.35;;;14.20;69.20;;;;;;5011157;28;20038;-49
2023/09/30 04:47:50;;;;;;;7.28;5.55;;;14.20;69.30;;;;;;5011163;28;20088;-48
2023/09/30 04:50:21;;;;;;;5.47;4.57;;;14.10;69.40;;;;;;5011937;28;20050;-48
2023/09/30 04:52:51;;;;;;;10.20;6.00;;;14.10;69.40;;;;;;5012830;28;20046;-50
2023/09/30 04:55:19;;;;;;;7.70;5.57;;;14.10;69.40;;;;;;5011696;28;20073;-53
2023/09/30 04:57:50;;;;;;;6.18;5.57;;;14.10;69.40;;;;;;5010630;28;20059;-53
2023/09/30 05:00:24;;;;;;;7.35;5.30;;;14.10;69.30;;;;;;5011597;28;20109;-52
2023/09/30 05:02:52;;;;;;;8.07;5.82;;;14.10;69.40;;;;;;5010978;28;20042;-52
2023/09/30 05:05:25;;;;;;;8.57;6.07;;;14.00;69.40;;;;;;5014375;28;20124;-48
2023/09/30 05:07:51;;;;;;;7.22;5.75;;;14.10;69.40;;;;;;5011086;28;20068;-50
2023/09/30 05:10:19;;;;;;;8.68;5.47;;;14.00;69.50;;;;;;5011659;28;20165;-49
2023/09/30 05:12:45;;;;;;;7.07;6.07;;;14.00;69.40;;;;;;5010794;28;20564;-51
2023/09/30 05:15:15;;;;;;;6.82;5.25;;;14.00;69.40;;;;;;5020302;28;20052;-49
2023/09/30 05:17:46;;;;;;;6.45;5.30;;;14.00;69.40;;;;;;5009645;28;20610;-49
2023/09/30 05:20:17;;;;;;;6.45;5.30;;;14.00;69.40;;;;;;5012271;28;20052;-49
2023/09/30 05:22:46;;;;;;;7.25;4.80;;;14.00;69.40;;;;;;5013470;28;20100;-49
2023/09/30 05:25:17;;;;;;;5.72;4.72;;;14.00;69.20;;;;;;5011905;28;20534;-48
2023/09/30 05:27:48;;;;;;;7.65;5.40;;;13.90;69.20;;;;;;5015172;28;20570;-49
2023/09/30 05:30:20;;;;;;;5.97;4.53;;;13.90;69.20;;;;;;5012411;28;20057;-48
2023/09/30 05:32:50;;;;;;;7.13;5.00;;;13.90;70.10;;;;;;5015349;28;20052;-52
2023/09/30 05:35:22;;;;;;;5.50;4.72;;;13.90;69.30;;;;;;5016635;28;20049;-52
2023/09/30 05:37:52;;;;;;;6.65;5.10;;;13.80;69.10;;;;;;5010902;28;20455;-50
2023/09/30 05:40:30;;;;;;;6.22;4.80;;;13.80;69.30;;;;;;5013923;28;20068;-52
2023/09/30 05:42:58;;;;;;;6.00;4.90;;;13.80;69.20;;;;;;5019275;28;20050;-53
2023/09/30 05:45:35;;;;;;;6.22;5.18;;;13.80;69.20;;;;;;5012620;28;20500;-53
2023/09/30 05:48:05;;;;;;;7.38;5.80;;;13.80;69.30;;;;;;5020441;28;20083;-53
2023/09/30 05:50:38;;;;;;;7.78;4.93;;;13.80;69.40;;;;;;5013361;28;20135;-49
2023/09/30 05:53:07;;;;;;;7.75;5.55;;;13.80;69.40;;;;;;5012716;28;20054;-51
2023/09/30 05:55:34;;;;;;;6.72;4.75;;;13.80;69.50;;;;;;5011170;28;20132;-52
2023/09/30 05:58:05;;;;;;;5.82;4.70;;;13.80;69.60;;;;;;5010511;28;20041;-52
2023/09/30 06:00:35;;;;;;;6.40;4.82;;;13.80;69.60;;;;;;5012771;28;20048;-53
2023/09/30 06:03:06;;;;;;;7.78;5.40;;;13.80;69.60;;;;;;5012739;28;20076;-51
2023/09/30 06:05:41;;;;;;;5.95;4.85;;;13.80;69.80;;;;;;5010120;28;20045;-52
2023/09/30 06:08:16;;;;;;;7.22;4.60;;;13.80;70.00;;;;;;5012079;28;20080;-52
2023/09/30 06:10:44;;;;;;;6.00;5.13;;;13.70;69.90;;;;;;5009437;28;20060;-48
2023/09/30 06:13:15;;;;;;;5.20;4.63;;;13.80;70.00;;;;;;5011040;28;20042;-52
2023/09/30 06:15:46;;;;;;;6.82;4.97;;;13.80;70.00;;;;;;5009746;28;20046;-51
2023/09/30 06:18:14;;;;;;;5.87;4.70;;;13.80;70.10;;;;;;5011822;28;20068;-53
2023/09/30 06:20:46;;;;;;;5.82;4.55;;;13.80;70.20;;;;;;5009648;28;20112;-48
2023/09/30 06:23:16;;;;;;;6.38;4.47;;;13.80;70.20;;;;;;5008695;28;20116;-52
2023/09/30 06:25:46;;;;;;;6.15;4.95;;;13.80;70.20;;;;;;5009297;28;20053;-52
2023/09/30 06:28:15;;;;;;;5.68;4.22;;;13.80;70.30;;;;;;5011098;28;20507;-52
2023/09/30 06:30:42;;;;;;;5.63;4.38;;;13.80;70.40;;;;;;5008956;28;20560;-53
2023/09/30 06:33:12;;;;;;;6.55;4.93;;;13.90;70.50;;;;;;5009351;28;20052;-52
2023/09/30 06:35:50;;;;;;;6.97;4.75;;;13.90;70.60;;;;;;5010358;28;20133;-53
2023/09/30 06:38:20;;;;;;;6.88;5.38;;;13.90;70.70;;;;;;5002553;28;20050;-53
2023/09/30 06:40:49;;;;;;;6.45;4.90;;;13.90;71.20;;;;;;5008296;28;20454;-53
2023/09/30 06:43:16;;;;;;;7.53;5.95;;;14.00;71.30;;;;;;5011279;28;20037;-51
2023/09/30 06:45:44;;;;;;;7.25;5.43;;;14.00;71.50;;;;;;5008452;28;20566;-52
2023/09/30 06:48:12;;;;;;;8.60;6.05;;;14.10;71.70;;;;;;5009092;28;20041;-53
2023/09/30 06:50:44;;;;;;;7.63;5.55;;;14.10;71.80;;;;;;5009082;28;20049;-49
2023/09/30 06:53:11;;;;;;;;;;;14.20;72.10;;;;;;5012909;28;20112;-53
2023/09/30 06:55:41;;;;;;;9.45;5.72;;;14.30;72.40;;;;;;5009446;28;19925;-52
2023/09/30 06:58:08;;;;;;;7.60;5.10;;;14.30;72.00;;;;;;5010385;28;20463;-51
2023/09/30 07:00:35;;;;;;;8.18;5.93;;;14.30;72.10;;;;;;5008825;28;20093;-49
2023/09/30 07:03:02;;;;;;;7.35;6.07;;;14.40;72.40;;;;;;5013271;28;20044;-53
2023/09/30 07:05:29;;;;;;;9.50;6.90;;;14.40;72.50;;;;;;5009854;28;20463;-51
2023/09/30 07:07:56;;;;;;;8.90;6.30;;;14.50;72.80;;;;;;5010986;28;20108;-53
2023/09/30 07:10:23;;;;;;;11.48;7.68;;;14.50;72.90;;;;;;5010844;28;20042;-53
2023/09/30 07:12:52;;;;;;;9.88;6.68;;;14.60;73.10;;;;;;5009032;28;20466;-51
2023/09/30 07:15:19;;;;;;;8.70;7.05;;;14.70;73.30;;;;;;5009456;28;20096;-52
2023/09/30 07:17:47;;;;;;;8.68;6.90;;;14.70;73.60;;;;;;5009016;28;20064;-53
2023/09/30 07:20:14;;;;;;;10.88;7.72;;;14.70;73.80;;;;;;5009317;28;20041;-53
2023/09/30 07:22:41;;;;;;;11.20;8.18;;;14.80;74.00;;;;;;5018042;28;20667;-52
2023/09/30 07:25:11;;;;;;;15.57;7.90;;;14.90;74.20;;;;;;5020470;28;20033;-53
2023/09/30 07:27:37;;;;;;;16.65;9.68;;;14.90;74.60;;;;;;5021461;28;20037;-53
2023/09/30 07:30:06;;;;;;;12.77;8.77;;;15.00;74.90;;;;;;5022332;28;20052;-53
2023/09/30 07:32:33;;;;;;;13.63;9.50;;;15.10;75.10;;;;;;5015960;28;20109;-52
2023/09/30 07:35:00;;;;;;;13.57;9.05;;;15.10;75.30;;;;;;5020291;28;20042;-52
2023/09/30 07:37:26;;;;;;;13.02;8.85;;;15.20;75.40;;;;;;5019822;28;20061;-53
2023/09/30 07:39:53;;;;;;;11.88;9.73;;;15.30;75.60;;;;;;5024699;28;20034;-53
2023/09/30 07:42:22;;;;;;;15.50;9.73;;;15.40;75.80;;;;;;5010863;28;20096;-53
2023/09/30 07:44:49;;;;;;;15.48;11.07;;;15.40;76.20;;;;;;5020422;28;20395;-50
2023/09/30 07:47:15;;;;;;;15.57;10.38;;;15.50;76.60;;;;;;5012744;28;20084;-52
2023/09/30 07:49:42;;;;;;;17.60;10.70;;;15.60;76.90;;;;;;5013576;28;20479;-53
2023/09/30 07:52:09;;;;;;;17.08;11.07;;;15.70;77.10;;;;;;5016913;28;20050;-53
2023/09/30 07:54:35;;;;;;;14.70;11.13;;;15.70;77.30;;;;;;5023437;28;20120;-53
2023/09/30 07:57:02;;;;;;;17.65;10.27;;;15.90;77.50;;;;;;5018375;28;20042;-51
2023/09/30 07:59:29;;;;;;;20.08;12.02;;;15.90;77.50;;;;;;5017106;28;20125;-52
2023/09/30 08:01:57;;;;;;;17.42;12.52;;;16.00;77.50;;;;;;5015626;28;20053;-51
2023/09/30 08:04:24;;;;;;;19.27;11.88;;;16.10;77.60;;;;;;5015674;28;20034;-51
2023/09/30 08:06:50;;;;;;;17.77;10.18;;;16.10;77.60;;;;;;5019873;28;20119;-52
2023/09/30 08:09:18;;;;;;;15.35;11.30;;;16.20;77.60;;;;;;5016089;28;20041;-51
2023/09/30 08:11:45;;;;;;;19.05;11.75;;;16.30;77.70;;;;;;5023731;28;20049;-53
2023/09/30 08:14:12;;;;;;;19.35;11.65;;;16.40;77.80;;;;;;5023013;28;20120;-53
2023/09/30 08:16:38;;;;;;;16.10;10.30;;;16.40;77.80;;;;;;5021592;28;20072;-52
2023/09/30 08:19:05;;;;;;;15.98;10.48;;;16.50;77.90;;;;;;5023684;28;20512;-52
2023/09/30 08:21:32;;;;;;;17.27;10.80;;;16.60;77.80;;;;;;5021485;28;20439;-51
2023/09/30 08:23:59;;;;;;;12.30;9.48;;;16.60;77.60;;;;;;5019488;28;20064;-51
2023/09/30 08:26:26;;;;;;;18.00;10.70;;;16.70;77.50;;;;;;5012082;28;20038;-52
2023/09/30 08:28:52;;;;;;;14.98;10.30;;;16.70;77.50;;;;;;5012855;28;20038;-52
2023/09/30 08:31:19;;;;;;;14.90;10.57;;;16.80;77.50;;;;;;5017226;28;20104;-49
2023/09/30 08:33:46;;;;;;;12.38;9.45;;;16.90;77.50;;;;;;5013889;28;20046;-49
2023/09/30 08:36:13;;;;;;;15.40;9.98;;;16.90;77.30;;;;;;5013385;28;20069;-50
2023/09/30 08:38:43;;;;;;;13.88;9.95;;;17.00;77.20;;;;;;5012433;28;20524;-49
2023/09/30 08:41:30;;;;;;;16.83;9.88;;;17.00;77.10;;;;;;5011173;28;20069;-53
2023/09/30 08:44:02;;;;;;;13.93;10.07;;;17.10;77.70;;;;;;5013377;28;20057;-50
2023/09/30 08:46:38;;;;;;;;;;;17.20;77.10;;;;;;5012013;28;20113;-53
2023/09/30 08:49:05;;;;;;;12.05;9.10;;;17.30;77.30;;;;;;5012439;28;19925;-50
2023/09/30 08:51:33;;;;;;;14.38;10.07;;;17.30;76.30;;;;;;5012887;28;20042;-50
2023/09/30 08:54:01;;;;;;;13.07;9.38;;;17.30;76.20;;;;;;5012175;28;20041;-53
2023/09/30 08:56:32;;;;;;;15.07;9.20;;;17.30;76.40;;;;;;5012130;28;20112;-52
2023/09/30 08:59:02;;;;;;;11.52;9.65;;;17.40;76.60;;;;;;5014506;28;20042;-51
2023/09/30 09:01:30;;;;;;;11.57;8.07;;;17.50;76.50;;;;;;5011761;28;20057;-50
2023/09/30 09:03:57;;;;;;;9.65;7.65;;;17.50;76.30;;;;;;5013630;28;20402;-49
2023/09/30 09:06:26;;;;;;;10.40;8.27;;;17.60;76.20;;;;;;5012277;28;20084;-49
2023/09/30 09:09:13;;;;;;;14.63;8.77;;;17.60;76.00;;;;;;5012536;28;20042;-49
2023/09/30 09:11:40;;;;;;;9.75;8.57;;;17.70;76.70;;;;;;5017323;28;20148;-48
2023/09/30 09:14:07;;;;;;;10.25;8.35;;;17.70;75.90;;;;;;5012718;28;20038;-52
2023/09/30 09:16:33;;;;;;;13.27;9.38;;;17.70;75.60;;;;;;5012588;28;20465;-52
2023/09/30 09:19:13;;;;;;;13.70;9.38;;;17.80;75.40;;;;;;5011740;28;20048;-52
2023/09/30 09:22:04;;;;;;;12.20;8.32;;;17.90;76.00;;;;;;5010488;28;20575;-51
2023/09/30 09:24:32;;;;;;;16.42;9.00;;;17.90;75.40;;;;;;5011704;28;20121;-51
2023/09/30 09:27:09;;;;;;;12.85;9.38;;;18.00;74.80;;;;;;5011341;28;20030;-49
2023/09/30 09:29:39;;;;;;;13.13;9.38;;;18.10;75.20;;;;;;5012364;28;20041;-51
2023/09/30 09:32:17;;;;;;;12.07;8.82;;;18.10;74.70;;;;;;5011328;28;20053;-49
2023/09/30 09:34:47;;;;;;;15.00;10.10;;;18.10;74.50;;;;;;5017583;28;20442;-53
2023/09/30 09:37:18;;;;;;;10.50;8.10;;;18.20;74.30;;;;;;5010931;28;20120;-50
2023/09/30 09:39:56;;;;;;;10.73;8.57;;;18.20;74.50;;;;;;5012011;28;20547;-53
2023/09/30 09:42:31;;;;;;;13.50;9.30;;;18.30;73.90;;;;;;5016550;28;20053;-49
2023/09/30 09:45:05;;;;;;;12.05;8.00;;;18.30;73.70;;;;;;5011653;28;20566;-50
2023/09/30 09:47:33;;;;;;;12.98;8.60;;;18.40;73.40;;;;;;5009937;28;20411;-51
2023/09/30 09:50:03;;;;;;;12.90;8.90;;;18.40;73.40;;;;;;5011993;28;20045;-51
2023/09/30 09:52:34;;;;;;;12.25;8.35;;;18.50;73.20;;;;;;5010591;28;20783;-52
2023/09/30 09:55:06;;;;;;;9.50;7.38;;;18.50;73.60;;;;;;5010531;28;20077;-53
2023/09/30 09:57:35;;;;;;;11.98;8.35;;;18.50;73.20;;;;;;5010821;28;20045;-53
2023/09/30 10:00:05;;;;;;;10.40;7.63;;;18.60;72.90;;;;;;5012336;28;20038;-51
2023/09/30 10:02:38;;;;;;;13.25;7.95;;;18.60;72.60;;;;;;5010367;28;20044;-53
2023/09/30 10:05:08;;;;;;;9.63;7.10;;;18.70;72.50;;;;;;5012479;28;20038;-52
2023/09/30 10:07:38;;;;;;;8.30;6.13;;;18.70;72.70;;;;;;5010257;28;20053;-53
2023/09/30 10:10:13;;;;;;;9.55;6.22;;;18.80;72.50;;;;;;5011450;28;20120;-52
2023/09/30 10:12:45;;;;;;;11.52;5.93;;;18.90;72.10;;;;;;5009317;28;20658;-51
2023/09/30 10:15:26;;;;;;;7.03;5.78;;;18.90;72.20;;;;;;5028420;23;20053;-52
2023/09/30 10:18:03;;;;;;;10.45;6.18;;;19.00;71.80;;;;;;5000820;28;20121;-50
2023/09/30 10:20:37;;;;;;;8.95;5.93;;;19.00;70.80;;;;;;5007551;28;20042;-47
2023/09/30 10:23:34;;;;;;;10.40;6.47;;;19.10;70.80;;;;;;5001069;28;20033;-49
2023/09/30 10:26:14;;;;;;;7.68;5.90;;;19.10;71.10;;;;;;5006070;28;20034;-51
2023/09/30 10:28:46;;;;;;;7.35;5.78;;;19.20;71.20;;;;;;4989745;28;20976;-47
2023/09/30 10:31:25;;;;;;;9.25;5.82;;;19.20;70.90;;;;;;5006145;28;20046;-51
2023/09/30 10:34:01;;;;;;;10.88;6.63;;;19.40;70.70;;;;;;4999180;28;20045;-48
2023/09/30 10:36:34;;;;;;;8.73;6.07;;;19.40;70.50;;;;;;5000557;28;20052;-51
2023/09/30 10:39:02;;;;;;;11.55;6.45;;;19.50;70.20;;;;;;5003302;28;20554;-51
2023/09/30 10:41:41;;;;;;;7.25;5.53;;;19.60;69.90;;;;;;5014687;28;20165;-51
2023/09/30 10:44:29;;;;;;;6.15;5.00;;;19.70;69.70;;;;;;5002966;28;20046;-52
2023/09/30 10:47:24;;;;;;;7.28;5.50;;;19.80;68.10;;;;;;5016525;28;20462;-50
2023/09/30 10:49:50;;;;;;;9.50;5.80;;;19.80;67.70;;;;;;5021141;28;20044;-49
2023/09/30 10:52:24;;;;;;;6.10;4.70;;;19.90;67.90;;;;;;5020398;28;20554;-48
2023/09/30 10:54:51;;;;;;;7.50;5.35;;;19.90;67.80;;;;;;5003874;28;20061;-52
2023/09/30 10:57:30;;;;;;;7.07;6.10;;;20.00;67.30;;;;;;5004893;28;20038;-51
2023/09/30 11:00:10;;;;;;;8.93;5.88;;;20.00;66.40;;;;;;4992342;28;20500;-51
2023/09/30 11:02:51;;;;;;;9.05;5.38;;;20.00;65.90;;;;;;5009769;28;20041;-52
2023/09/30 11:05:20;;;;;;;10.20;6.68;;;20.00;65.90;;;;;;5002429;28;20526;-48
2023/09/30 11:08:03;;;;;;;8.27;5.97;;;20.10;66.70;;;;;;5000723;28;20492;-53
2023/09/30 11:10:31;;;;;;;9.70;6.53;;;20.10;66.80;;;;;;5013221;28;20125;-48
2023/09/30 11:12:58;;;;;;;8.45;5.80;;;20.10;66.20;;;;;;5024478;28;20091;-48
2023/09/30 11:15:27;;;;;;;7.03;5.38;;;20.10;65.80;;;;;;5009585;28;20048;-52
2023/09/30 11:18:12;;;;;;;10.98;6.35;;;20.10;65.70;;;;;;5015307;28;20454;-52
2023/09/30 11:20:39;;;;;;;6.75;4.82;;;20.20;65.50;;;;;;5023058;28;20087;-50
2023/09/30 11:23:06;;;;;;;7.22;4.88;;;20.20;65.40;;;;;;5011330;28;20074;-52
2023/09/30 11:25:39;;;;;;;9.02;5.15;;;20.20;65.30;;;;;;5003339;28;20112;-49
2023/09/30 11:28:15;;;;;;;7.53;4.50;;;20.30;65.10;;;;;;4995078;28;20041;-51
2023/09/30 11:30:59;;;;;;;7.43;5.30;;;20.30;64.00;;;;;;4999821;28;20141;-48
2023/09/30 11:33:26;;;;;;;7.60;5.18;;;20.40;63.80;;;;;;4992729;28;20053;-52
2023/09/30 11:36:06;;;;;;;8.63;5.80;;;20.50;64.70;;;;;;5006192;28;20042;-51
2023/09/30 11:38:36;;;;;;;8.48;5.82;;;20.60;63.90;;;;;;5024536;28;20046;-52
2023/09/30 11:41:06;;;;;;;9.75;4.68;;;20.60;63.80;;;;;;5011166;28;20555;-52
2023/09/30 11:43:34;;;;;;;8.23;5.60;;;20.70;64.10;;;;;;5005737;28;20543;-51
2023/09/30 11:46:13;;;;;;;6.00;4.63;;;20.80;63.30;;;;;;5006797;28;20039;-50
2023/09/30 11:48:56;;;;;;;7.15;4.85;;;20.90;63.20;;;;;;5012619;28;20049;-48
2023/09/30 11:51:26;;;;;;;6.47;4.28;;;21.10;62.80;;;;;;5004396;28;20042;-52
2023/09/30 11:53:55;;;;;;;7.25;4.57;;;21.10;63.00;;;;;;5004376;28;20046;-52
2023/09/30 11:56:27;;;;;;;9.18;4.50;;;21.30;63.20;;;;;;5003214;28;20074;-52
2023/09/30 11:58:55;;;;;;;6.22;4.35;;;21.40;62.80;;;;;;4996817;28;20069;-53
2023/09/30 12:01:22;;;;;;;6.57;4.80;;;21.50;62.10;;;;;;4999731;28;20528;-52
2023/09/30 12:03:49;;;;;;;7.03;4.68;;;21.60;61.60;;;;;;4992874;28;20034;-53
2023/09/30 12:06:16;;;;;;;6.82;4.30;;;21.60;61.00;;;;;;4999348;28;20085;-52
2023/09/30 12:08:45;;;;;;;7.50;4.97;;;21.70;59.70;;;;;;4994625;28;20582;-51
2023/09/30 12:11:13;;;;;;;5.88;3.83;;;21.80;59.20;;;;;;4993259;28;20097;-49
2023/09/30 12:13:40;;;;;;;5.35;3.58;;;21.80;59.60;;;;;;5010448;28;20111;-50
2023/09/30 12:16:06;;;;;;;4.78;3.05;;;21.90;58.90;;;;;;5013648;28;20038;-52
2023/09/30 12:18:33;;;;;;;5.20;3.38;;;21.90;58.70;;;;;;5009371;28;20044;-53
2023/09/30 12:21:00;;;;;;;7.28;4.18;;;22.00;58.20;;;;;;4998035;28;20047;-52
2023/09/30 12:23:26;;;;;;;6.95;4.80;;;22.10;58.00;;;;;;4998549;28;20121;-52
2023/09/30 12:25:55;;;;;;;7.90;4.97;;;22.10;57.80;;;;;;4995552;28;20038;-53
2023/09/30 12:28:40;;;;;;;6.97;4.05;;;22.20;57.00;;;;;;5008924;28;20037;-52
2023/09/30 12:31:07;;;;;;;5.70;4.20;;;22.30;58.00;;;;;;5011920;28;20046;-53
2023/09/30 12:33:34;;;;;;;6.05;4.85;;;22.30;58.00;;;;;;5022824;28;20510;-52
2023/09/30 12:36:01;;;;;;;4.63;4.13;;;22.40;58.40;;;;;;5007324;28;20038;-53
2023/09/30 12:38:30;;;;;;;6.30;4.07;;;22.50;57.40;;;;;;5010382;28;22215;-52
2023/09/30 12:40:58;;;;;;;7.45;4.47;;;22.60;57.50;;;;;;5015688;28;20053;-52
2023/09/30 12:43:25;;;;;;;8.68;5.22;;;22.60;57.00;;;;;;5014337;28;20045;-52
2023/09/30 12:45:51;;;;;;;5.85;4.25;;;22.70;56.50;;;;;;5023473;28;20033;-52
2023/09/30 12:48:18;;;;;;;6.13;4.97;;;22.70;56.20;;;;;;5025470;28;20104;-52
2023/09/30 12:50:45;;;;;;;8.77;5.13;;;22.80;56.50;;;;;;5008651;28;20470;-49
2023/09/30 12:53:11;;;;;;;8.95;5.88;;;22.80;56.10;;;;;;4996387;28;20104;-52
2023/09/30 12:55:38;;;;;;;7.07;5.32;;;22.90;55.60;;;;;;5011633;28;20038;-50
2023/09/30 12:58:05;;;;;;;7.93;4.85;;;22.90;55.40;;;;;;5000604;28;20129;-52
2023/09/30 13:00:32;;;;;;;6.57;4.50;;;23.00;55.70;;;;;;4994735;28;20088;-49